Time;durP1;ratioP1;P1;durP2;ratioP2;P2;SDS_P1;SDS_P2;PMS_P1;PMS_P2;Temp;Humidity;BMP_temperature;BMP_pressure;BME280_temperature;BME280_humidity;BME280_pressure;Samples;Min_cycle;Max_cycle;Signal;HPM_P1;HPM_P2
2023/07/14 00:00:17;;;;;;;9.93;4.18;;;;;;;22.29;97.84;93137.06;5080153;28;20134;-73
2023/07/14 00:02:46;;;;;;;5.72;3.78;;;;;;;22.26;97.12;93129.78;5086899;28;20168;-73
2023/07/14 00:05:15;;;;;;;8.50;4.38;;;;;;;22.22;96.71;93128.78;5086786;28;20425;-73
2023/07/14 00:07:42;;;;;;;6.85;4.25;;;;;;;22.08;96.54;93107.78;5084784;28;20040;-73
2023/07/14 00:10:18;;;;;;;8.18;4.28;;;;;;;22.12;96.28;93132.34;5084200;28;20089;-73
2023/07/14 00:12:46;;;;;;;7.85;4.55;;;;;;;22.15;96.57;93133.59;5084084;28;20097;-73
2023/07/14 00:15:13;;;;;;;7.00;4.20;;;;;;;;;;5086718;28;20464;-73
2023/07/14 00:17:40;;;;;;;10.10;4.95;;;;;;;22.18;97.22;93124.41;5086905;28;20467;-73
2023/07/14 00:20:22;;;;;;;8.05;3.83;;;;;;;21.98;95.96;93079.19;5084967;28;20044;-73
2023/07/14 00:22:49;;;;;;;6.20;4.32;;;;;;;22.21;96.24;93119.38;5080601;28;20081;-73
2023/07/14 00:25:16;;;;;;;8.43;4.63;;;;;;;22.20;97.06;93104.75;5085548;28;20044;-73
2023/07/14 00:27:43;;;;;;;6.85;4.10;;;;;;;22.25;96.13;93109.13;5077245;28;20076;-73
2023/07/14 00:30:16;;;;;;;8.25;4.55;;;;;;;22.27;95.76;93105.16;5083251;28;20047;-73
2023/07/14 00:32:43;;;;;;;7.38;4.28;;;;;;;22.28;95.85;93106.72;5080704;28;20048;-73
2023/07/14 00:35:19;;;;;;;6.00;4.30;;;;;;;22.31;95.54;93115.06;5086450;28;20090;-73
2023/07/14 00:37:47;;;;;;;9.88;4.57;;;;;;;22.29;95.33;93121.38;5086689;28;20134;-73
2023/07/14 00:40:17;;;;;;;6.20;4.63;;;;;;;22.27;96.00;93110.38;5082619;28;20047;-73
2023/07/14 00:42:42;;;;;;;7.78;4.63;;;;;;;22.15;96.84;93112.69;5086453;28;20048;-73
2023/07/14 00:45:10;;;;;;;;;;;;;;;22.20;96.99;93127.50;5087245;28;20101;-73
2023/07/14 00:47:38;;;;;;;8.45;4.60;;;;;;;22.11;97.35;93130.78;5081203;28;20316;-73
2023/07/14 00:50:06;;;;;;;7.55;4.60;;;;;;;22.07;97.80;93140.25;5085969;28;20501;-73
2023/07/14 00:52:37;;;;;;;9.63;5.18;;;;;;;22.08;98.41;93144.41;5086097;28;20098;-73
2023/07/14 00:55:28;;;;;;;7.10;4.47;;;;;;;21.93;100.00;93166.31;5082188;28;20862;-74
2023/07/14 00:57:56;;;;;;;15.05;6.40;;;;;;;21.75;100.00;93163.41;5088002;28;20105;-73
2023/07/14 01:00:27;;;;;;;15.23;6.30;;;;;;;21.67;100.00;93164.03;5086232;28;20040;-73
2023/07/14 01:02:56;;;;;;;10.45;6.07;;;;;;;21.71;100.00;93191.16;5086972;28;20044;-72
2023/07/14 01:05:23;;;;;;;12.98;6.40;;;;;;;21.70;100.00;93205.31;5088355;28;20047;-73
2023/07/14 01:07:51;;;;;;;13.75;6.50;;;;;;;21.66;100.00;93209.50;5089250;28;20048;-73
2023/07/14 01:10:22;;;;;;;12.50;6.50;;;;;;;21.55;100.00;93206.22;5087812;28;20413;-73
2023/07/14 01:12:54;;;;;;;12.52;6.20;;;;;;;21.43;100.00;93196.16;5088560;28;20093;-73
2023/07/14 01:15:21;;;;;;;16.73;7.70;;;;;;;21.48;100.00;93211.78;5086971;28;20039;-73
2023/07/14 01:17:50;;;;;;;14.60;6.40;;;;;;;21.44;100.00;93210.00;5088815;28;20104;-73
2023/07/14 01:20:20;;;;;;;16.20;6.90;;;;;;;21.45;100.00;93198.50;5089106;28;20110;-73
2023/07/14 01:23:00;;;;;;;17.40;7.78;;;;;;;21.56;100.00;93214.88;5083715;28;20094;-73
2023/07/14 01:25:38;;;;;;;14.05;7.82;;;;;;;21.61;100.00;93212.16;5088011;28;20048;-73
2023/07/14 01:28:08;;;;;;;10.95;5.47;;;;;;;21.57;100.00;93209.34;5088980;28;20504;-73
2023/07/14 01:30:36;;;;;;;9.63;5.32;;;;;;;21.68;100.00;93225.69;5086977;28;20040;-73
2023/07/14 01:33:04;;;;;;;10.50;6.25;;;;;;;21.72;100.00;93220.72;5088903;28;20044;-72
2023/07/14 01:35:33;;;;;;;13.75;6.25;;;;;;;21.71;100.00;93214.69;5089182;28;20052;-73
2023/07/14 01:38:00;;;;;;;15.55;7.03;;;;;;;21.76;100.00;93212.03;5086015;28;20608;-73
2023/07/14 01:40:28;;;;;;;13.55;7.78;;;;;;;21.79;100.00;93210.69;5089004;28;20044;-73
2023/07/14 01:42:57;;;;;;;14.07;7.10;;;;;;;21.79;100.00;93207.31;5089294;28;20052;-73
2023/07/14 01:45:30;;;;;;;17.85;7.82;;;;;;;21.73;100.00;93202.16;5085082;28;20044;-73
2023/07/14 01:47:59;;;;;;;16.40;8.35;;;;;;;21.83;100.00;93209.09;5088958;28;20052;-73
2023/07/14 01:50:31;;;;;;;17.55;8.73;;;;;;;21.82;100.00;93204.13;5089163;28;20100;-73
2023/07/14 01:53:16;;;;;;;16.98;7.50;;;;;;;21.76;100.00;93206.81;5084394;28;20061;-73
2023/07/14 01:55:46;;;;;;;18.15;8.82;;;;;;;21.72;100.00;93208.41;5088237;28;20102;-73
2023/07/14 01:58:19;;;;;;;19.77;8.68;;;;;;;21.70;100.00;93205.31;5085937;28;20052;-73
2023/07/14 02:00:49;;;;;;;14.57;7.47;;;;;;;21.68;100.00;93209.22;5085150;28;20093;-73
2023/07/14 02:03:22;;;;;;;20.65;8.50;;;;;;;21.64;100.00;93211.63;5088669;28;20052;-73
2023/07/14 02:05:49;;;;;;;17.83;8.63;;;;;;;21.61;100.00;93212.16;5085202;28;20090;-73
2023/07/14 02:08:24;;;;;;;18.25;9.07;;;;;;;21.56;100.00;93213.00;5087347;28;20044;-73
2023/07/14 02:10:50;;;;;;;19.10;8.00;;;;;;;21.52;100.00;93214.63;5084557;28;20044;-72
2023/07/14 02:13:17;;;;;;;16.60;8.32;;;;;;;21.47;100.00;93220.69;5087362;28;20382;-72
2023/07/14 02:15:44;;;;;;;12.65;7.57;;;;;;;21.43;100.00;93221.53;5088553;28;20125;-72
2023/07/14 02:18:16;;;;;;;12.90;7.25;;;;;;;21.37;100.00;93233.84;5086347;28;20052;-73
2023/07/14 02:20:47;;;;;;;14.18;7.10;;;;;;;21.27;100.00;93229.50;5083176;28;20043;-72
2023/07/14 02:23:16;;;;;;;14.52;7.53;;;;;;;21.00;100.00;93253.50;5088345;28;20048;-72
2023/07/14 02:25:44;;;;;;;15.52;7.55;;;;;;;20.79;100.00;93251.78;5086989;28;20493;-72
2023/07/14 02:28:12;;;;;;;18.52;8.45;;;;;;;20.70;100.00;93253.44;5085266;28;20383;-72
2023/07/14 02:30:41;;;;;;;16.88;7.47;;;;;;;20.61;100.00;93257.69;5080358;28;20109;-73
2023/07/14 02:33:17;;;;;;;15.85;7.47;;;;;;;20.58;100.00;93266.81;5086527;28;20051;-73
2023/07/14 02:35:53;;;;;;;11.88;7.07;;;;;;;20.56;100.00;93274.16;5081054;28;20051;-73
2023/07/14 02:38:19;;;;;;;18.77;8.05;;;;;;;20.54;100.00;93281.44;5085098;28;20652;-73
2023/07/14 02:40:51;;;;;;;17.65;7.53;;;;;;;20.39;100.00;93290.94;5083840;28;20044;-72
2023/07/14 02:43:20;;;;;;;16.40;7.68;;;;;;;20.21;100.00;93275.88;5087469;28;20052;-72
2023/07/14 02:45:52;;;;;;;16.13;7.30;;;;;;;20.24;100.00;93272.75;5085102;28;20123;-72
2023/07/14 02:48:26;;;;;;;18.17;8.38;;;;;;;20.42;100.00;93300.81;5088210;28;20048;-72
2023/07/14 02:50:53;;;;;;;14.73;7.28;;;;;;;20.47;100.00;93301.84;5087625;28;20074;-72
2023/07/14 02:53:20;;;;;;;13.60;7.22;;;;;;;20.46;100.00;93303.66;5083223;28;20040;-73
2023/07/14 02:55:46;;;;;;;17.67;7.97;;;;;;;20.52;100.00;93312.25;5087878;28;20051;-73
2023/07/14 02:58:13;;;;;;;13.15;7.60;;;;;;;20.59;100.00;93301.53;5082773;28;20044;-73
2023/07/14 03:00:40;;;;;;;15.27;7.40;;;;;;;20.67;100.00;93311.41;5085607;28;20044;-73
2023/07/14 03:03:07;;;;;;;18.55;7.32;;;;;;;20.75;100.00;93303.00;5080787;28;20051;-73
2023/07/14 03:05:35;;;;;;;19.38;9.45;;;;;;;20.80;100.00;93300.38;5087669;28;20052;-73
2023/07/14 03:08:02;;;;;;;15.32;8.13;;;;;;;20.81;100.00;93293.28;5087322;28;20052;-73
2023/07/14 03:10:29;;;;;;;15.57;8.35;;;;;;;20.85;100.00;93303.97;5083719;28;20048;-73
2023/07/14 03:12:55;;;;;;;16.02;8.50;;;;;;;20.87;100.00;93307.13;5087205;28;20460;-73
2023/07/14 03:15:23;;;;;;;17.85;7.97;;;;;;;20.88;100.00;93312.06;5085250;28;20036;-73
2023/07/14 03:17:49;;;;;;;16.38;8.32;;;;;;;20.90;100.00;93309.19;5083161;28;20048;-73
2023/07/14 03:20:16;;;;;;;18.05;8.50;;;;;;;20.84;100.00;93303.22;5086000;28;20493;-74
2023/07/14 03:22:44;;;;;;;16.35;8.43;;;;;;;20.86;100.00;93302.94;5084007;28;20102;-74
2023/07/14 03:25:11;;;;;;;15.27;8.00;;;;;;;20.89;100.00;93307.63;5082044;28;20551;-74
2023/07/14 03:27:38;;;;;;;15.57;7.95;;;;;;;20.78;100.00;93318.13;5085512;28;20116;-73
2023/07/14 03:30:06;;;;;;;16.55;7.82;;;;;;;20.69;100.00;93328.34;5086652;28;20554;-73
2023/07/14 03:32:33;;;;;;;15.73;8.07;;;;;;;20.66;100.00;93323.69;5086420;28;20112;-73
2023/07/14 03:34:59;;;;;;;15.38;8.20;;;;;;;20.70;100.00;93329.13;5083450;28;20094;-74
2023/07/14 03:37:26;;;;;;;15.90;8.13;;;;;;;20.72;100.00;93331.47;5086861;28;20497;-74
2023/07/14 03:39:54;;;;;;;15.43;8.65;;;;;;;20.70;100.00;93329.13;5083662;28;20078;-74
2023/07/14 03:42:21;;;;;;;17.67;7.72;;;;;;;20.73;100.00;93322.59;5085360;28;20048;-73
2023/07/14 03:44:48;;;;;;;14.75;7.80;;;;;;;20.72;100.00;93321.81;5088982;28;20073;-73
2023/07/14 03:47:13;;;;;;;17.85;8.70;;;;;;;20.78;100.00;93330.41;5088652;28;20079;-73
2023/07/14 03:49:40;;;;;;;;;;;;;;;20.83;100.00;93325.16;5086227;28;20158;-73
2023/07/14 03:52:08;;;;;;;18.45;7.85;;;;;;;20.82;100.00;93329.59;5092407;28;19924;-73
2023/07/14 03:54:35;;;;;;;15.10;8.13;;;;;;;20.87;100.00;93330.63;5090218;28;20090;-73
2023/07/14 03:57:05;;;;;;;15.45;8.05;;;;;;;20.93;100.00;93334.78;5089237;28;20160;-73
2023/07/14 03:59:32;;;;;;;13.30;8.07;;;;;;;21.01;100.00;93333.41;5090376;28;20052;-73
2023/07/14 04:01:59;;;;;;;14.07;8.45;;;;;;;21.04;100.00;93330.25;5091220;28;20100;-73
2023/07/14 04:04:25;;;;;;;14.43;8.65;;;;;;;21.09;100.00;93323.16;5093279;28;20789;-73
2023/07/14 04:06:52;;;;;;;20.17;8.93;;;;;;;21.15;100.00;93338.81;5089106;28;20052;-73
2023/07/14 04:09:19;;;;;;;16.95;8.05;;;;;;;21.20;100.00;93338.78;5092112;28;21190;-73
2023/07/14 04:11:46;;;;;;;17.25;8.68;;;;;;;21.23;100.00;93336.38;5089013;28;20509;-73
2023/07/14 04:14:14;;;;;;;15.77;7.60;;;;;;;21.28;100.00;93330.34;5087986;28;20100;-73
2023/07/14 04:16:40;;;;;;;15.20;7.43;;;;;;;21.28;100.00;93330.34;5088698;28;20056;-74
2023/07/14 04:19:07;;;;;;;17.10;8.20;;;;;;;21.33;100.00;93334.72;5095409;28;20040;-73
2023/07/14 04:21:34;;;;;;;15.55;8.65;;;;;;;21.37;100.00;93327.91;5094599;28;20056;-73
2023/07/14 04:24:01;;;;;;;19.20;7.82;;;;;;;21.46;100.00;93328.09;5087340;28;20048;-77
2023/07/14 04:26:29;;;;;;;15.15;8.55;;;;;;;21.52;100.00;93334.84;5087260;28;20047;-76
2023/07/14 04:28:56;;;;;;;13.93;8.20;;;;;;;21.52;100.00;93332.22;5087651;28;20110;-76
2023/07/14 04:31:24;;;;;;;13.75;8.48;;;;;;;21.60;100.00;93338.69;5089015;28;20052;-76
2023/07/14 04:33:52;;;;;;;18.30;9.07;;;;;;;21.62;100.00;93341.81;5091853;28;20047;-77
2023/07/14 04:36:19;;;;;;;20.48;8.80;;;;;;;21.70;100.00;93341.25;5096500;28;20454;-74
2023/07/14 04:39:01;;;;;;;18.88;8.45;;;;;;;21.75;100.00;93341.19;5099424;28;20390;-74
2023/07/14 04:41:28;;;;;;;16.45;8.82;;;;;;;21.63;100.00;93346.00;5092767;28;20056;-74
2023/07/14 04:43:54;;;;;;;17.95;8.52;;;;;;;21.66;100.00;93337.59;5088766;28;20049;-74
2023/07/14 04:46:21;;;;;;;17.52;8.55;;;;;;;21.72;100.00;93335.75;5099245;28;20493;-74
2023/07/14 04:48:51;;;;;;;17.58;9.30;;;;;;;21.81;100.00;93343.75;5090741;28;20097;-74
2023/07/14 04:51:18;;;;;;;17.73;8.52;;;;;;;21.89;100.00;93351.78;5086128;28;20046;-74
2023/07/14 04:53:45;;;;;;;17.30;8.60;;;;;;;21.96;100.00;93346.22;5108575;28;20096;-74
2023/07/14 04:56:11;;;;;;;13.70;8.07;;;;;;;22.09;100.00;93357.06;5088255;28;20044;-74
2023/07/14 04:58:38;;;;;;;19.05;9.07;;;;;;;22.04;100.00;93360.53;5085636;28;20043;-74
2023/07/14 05:01:05;;;;;;;19.52;9.80;;;;;;;22.13;100.00;93358.84;5095119;28;20048;-74
2023/07/14 05:03:32;;;;;;;15.43;8.93;;;;;;;22.30;100.00;93368.09;5088683;28;20128;-73
2023/07/14 05:06:00;;;;;;;16.33;8.65;;;;;;;22.45;100.00;93364.50;5088091;28;20807;-74
2023/07/14 05:08:26;;;;;;;15.18;8.55;;;;;;;22.58;100.00;93372.78;5109336;28;20497;-74
2023/07/14 05:10:53;;;;;;;17.65;8.60;;;;;;;22.63;100.00;93367.50;5109012;28;20102;-73
2023/07/14 05:13:20;;;;;;;18.70;9.82;;;;;;;22.50;100.00;93377.53;5096975;28;20760;-73
2023/07/14 05:15:47;;;;;;;23.63;10.93;;;;;;;22.57;100.00;93379.84;5093919;28;20107;-73
2023/07/14 05:18:14;;;;;;;21.40;9.38;;;;;;;22.45;100.00;93372.34;5109105;28;20134;-74
2023/07/14 05:20:41;;;;;;;21.02;9.52;;;;;;;22.43;100.00;93337.84;5095682;28;20040;-73
2023/07/14 05:23:11;;;;;;;17.63;9.05;;;;;;;22.62;100.00;93361.47;5088998;28;20057;-74
2023/07/14 05:25:37;;;;;;;20.23;8.82;;;;;;;22.82;100.00;93373.50;5087631;28;21035;-73
2023/07/14 05:28:05;;;;;;;19.50;8.45;;;;;;;22.86;100.00;93372.97;5086467;28;20101;-74
2023/07/14 05:30:32;;;;;;;14.65;7.05;;;;;;;23.09;97.01;93379.16;5089988;28;20052;-74
2023/07/14 05:32:59;;;;;;;10.80;5.30;;;;;;;23.38;94.47;93383.50;5092468;28;20053;-73
2023/07/14 05:35:26;;;;;;;11.43;5.45;;;;;;;23.51;93.07;93376.75;5091755;28;20101;-74
2023/07/14 05:37:56;;;;;;;10.35;5.13;;;;;;;23.67;90.12;93373.88;5090446;28;20043;-74
2023/07/14 05:40:25;;;;;;;7.50;4.70;;;;;;;23.83;89.68;93377.03;5090050;28;20040;-74
2023/07/14 05:42:52;;;;;;;11.13;6.03;;;;;;;24.03;88.50;93383.75;5094491;28;20102;-73
2023/07/14 05:45:18;;;;;;;8.40;4.53;;;;;;;24.23;88.01;93366.88;5090159;28;20094;-73
2023/07/14 05:47:47;;;;;;;7.10;4.65;;;;;;;24.22;85.68;93373.22;5089629;28;20048;-73
2023/07/14 05:50:15;;;;;;;8.75;4.88;;;;;;;24.42;84.46;93379.13;5087690;28;20055;-74
2023/07/14 05:52:42;;;;;;;9.02;5.43;;;;;;;24.41;85.46;93361.81;5100056;28;20047;-73
2023/07/14 05:55:09;;;;;;;9.02;5.38;;;;;;;24.53;85.24;93377.09;5084477;28;20043;-73
2023/07/14 05:57:37;;;;;;;7.57;5.25;;;;;;;24.69;84.49;93385.44;5094406;28;20047;-73
2023/07/14 06:00:12;;;;;;;11.05;5.20;;;;;;;24.87;83.87;93380.38;5093832;28;20102;-74
2023/07/14 06:02:40;;;;;;;12.38;6.00;;;;;;;25.20;82.01;93375.72;5089175;28;20162;-74
2023/07/14 06:05:07;;;;;;;10.88;5.30;;;;;;;25.44;80.13;93381.72;5096148;28;20097;-74
2023/07/14 06:07:34;;;;;;;13.20;5.10;;;;;;;25.57;82.27;93390.66;5089239;28;20739;-74
2023/07/14 06:10:01;;;;;;;9.35;4.68;;;;;;;25.70;81.75;93383.78;5091513;28;20117;-73
2023/07/14 06:12:28;;;;;;;9.07;4.78;;;;;;;25.77;80.52;93378.09;5090927;28;20097;-73
2023/07/14 06:14:56;;;;;;;8.63;4.88;;;;;;;25.85;80.07;93388.69;5088924;28;20564;-73
2023/07/14 06:17:23;;;;;;;8.68;5.13;;;;;;;25.56;82.31;93373.34;5084309;28;20040;-73
2023/07/14 06:19:49;;;;;;;9.52;5.55;;;;;;;25.61;81.54;93365.31;5095607;28;20122;-73
2023/07/14 06:22:16;;;;;;;7.43;4.75;;;;;;;25.21;81.66;93361.47;5085142;28;20044;-73
2023/07/14 06:24:43;;;;;;;8.68;5.15;;;;;;;25.47;82.77;93365.38;5094182;28;20097;-73
2023/07/14 06:27:10;;;;;;;8.07;5.05;;;;;;;25.38;83.14;93367.16;5089113;28;20101;-73
2023/07/14 06:29:38;;;;;;;9.48;5.43;;;;;;;25.47;83.98;93363.50;5084759;28;20048;-73
2023/07/14 06:32:07;;;;;;;7.65;4.65;;;;;;;25.46;83.50;93363.81;5087830;28;20097;-73
2023/07/14 06:34:34;;;;;;;9.25;5.20;;;;;;;25.63;81.99;93365.03;5089940;28;20047;-73
2023/07/14 06:37:00;;;;;;;8.48;4.95;;;;;;;25.80;81.84;93367.75;5090244;28;20576;-73
2023/07/14 06:39:27;;;;;;;14.88;5.65;;;;;;;25.78;79.19;93377.78;5093854;28;20048;-73
2023/07/14 06:41:54;;;;;;;9.27;5.38;;;;;;;25.65;81.33;93344.47;5088908;28;20048;-73
2023/07/14 06:44:21;;;;;;;12.18;5.28;;;;;;;25.97;81.76;93356.53;5086106;28;20090;-73
2023/07/14 06:46:47;;;;;;;9.45;5.55;;;;;;;25.97;79.89;93371.56;5096420;28;20056;-73
2023/07/14 06:49:15;;;;;;;7.35;5.35;;;;;;;26.04;79.07;93368.47;5089956;28;20048;-73
2023/07/14 06:51:42;;;;;;;8.27;4.43;;;;;;;26.36;79.29;93375.28;5098353;28;20051;-73
2023/07/14 06:54:09;;;;;;;8.52;4.82;;;;;;;26.45;78.12;93370.03;5091742;28;20048;-73
2023/07/14 06:56:36;;;;;;;10.60;5.15;;;;;;;26.81;75.40;93376.91;5106017;28;20097;-73
2023/07/14 06:59:03;;;;;;;9.50;4.82;;;;;;;26.44;77.35;93370.34;5091887;28;20055;-73
2023/07/14 07:01:29;;;;;;;8.30;4.90;;;;;;;26.54;74.51;93368.22;5096178;28;20043;-73
2023/07/14 07:03:56;;;;;;;8.10;5.00;;;;;;;26.60;76.17;93368.06;5107119;28;20067;-73
2023/07/14 07:06:24;;;;;;;9.25;5.25;;;;;;;26.84;76.53;93366.88;5106023;28;20663;-73
2023/07/14 07:08:51;;;;;;;9.32;5.10;;;;;;;27.25;73.79;93370.94;5090412;28;20129;-74
2023/07/14 07:11:18;;;;;;;10.65;5.53;;;;;;;27.80;71.98;93368.72;5088473;28;20125;-74
2023/07/14 07:13:44;;;;;;;9.38;5.97;;;;;;;28.27;70.20;93372.44;5083259;28;20072;-74
2023/07/14 07:16:11;;;;;;;10.30;4.68;;;;;;;28.70;67.96;93368.06;5096294;28;20454;-74
2023/07/14 07:18:38;;;;;;;10.30;5.65;;;;;;;28.88;66.56;93378.53;5090117;28;20511;-74
2023/07/14 07:21:07;;;;;;;8.88;4.70;;;;;;;28.68;67.70;93371.00;5095082;28;20047;-74
2023/07/14 07:23:35;;;;;;;10.23;5.80;;;;;;;28.39;68.07;93377.84;5098636;28;20054;-74
2023/07/14 07:26:02;;;;;;;9.05;5.03;;;;;;;27.78;69.46;93373.53;5091243;28;20124;-74
2023/07/14 07:28:29;;;;;;;6.78;4.93;;;;;;;27.64;69.67;93381.63;5096200;28;20133;-74
2023/07/14 07:30:56;;;;;;;9.48;5.90;;;;;;;27.86;69.20;93370.09;5095567;28;20456;-74
2023/07/14 07:33:22;;;;;;;7.53;5.00;;;;;;;28.09;69.27;93363.81;5105552;28;20562;-73
2023/07/14 07:35:49;;;;;;;9.77;5.13;;;;;;;28.15;69.49;93370.47;5091870;28;20076;-74
2023/07/14 07:38:18;;;;;;;9.63;5.28;;;;;;;28.32;69.24;93368.88;5094173;28;20083;-74
2023/07/14 07:40:47;;;;;;;12.00;5.60;;;;;;;28.10;69.45;93374.03;5090433;28;20043;-74
2023/07/14 07:43:14;;;;;;;27.17;5.53;;;;;;;28.13;68.99;93364.72;5092586;28;20055;-73
2023/07/14 07:45:47;;;;;;;9.52;4.53;;;;;;;28.25;70.21;93366.72;5090122;28;20079;-74
2023/07/14 07:48:14;;;;;;;7.32;4.90;;;;;;;28.42;68.71;93357.94;5087453;28;20114;-73
2023/07/14 07:50:41;;;;;;;12.20;6.03;;;;;;;28.18;69.56;93353.97;5086963;28;20144;-74
2023/07/14 07:53:07;;;;;;;11.95;5.35;;;;;;;28.97;69.22;93358.06;5094930;28;20044;-74
2023/07/14 07:55:34;;;;;;;11.95;7.25;;;;;;;29.09;67.30;93357.38;5105861;28;20047;-74
2023/07/14 07:58:02;;;;;;;9.15;5.18;;;;;;;29.53;67.03;93356.25;5106764;28;20043;-74
2023/07/14 08:00:29;;;;;;;9.90;5.00;;;;;;;29.78;65.67;93351.78;5092611;28;20050;-74
2023/07/14 08:02:55;;;;;;;7.85;5.15;;;;;;;29.80;63.76;93351.47;5099952;28;20079;-74
2023/07/14 08:05:24;;;;;;;7.07;4.38;;;;;;;29.99;64.52;93351.72;5101281;28;20048;-74
2023/07/14 08:07:50;;;;;;;7.75;5.38;;;;;;;30.21;64.83;93352.41;5094990;28;20472;-74
2023/07/14 08:10:17;;;;;;;8.70;4.97;;;;;;;29.81;61.44;93337.13;5091868;28;20443;-74
2023/07/14 08:12:44;;;;;;;9.32;5.50;;;;;;;30.14;60.70;93345.00;5091554;28;20087;-74
2023/07/14 08:15:12;;;;;;;9.10;4.95;;;;;;;30.48;59.25;93346.78;5090840;28;20083;-74
2023/07/14 08:17:54;;;;;;;10.93;5.15;;;;;;;30.61;59.61;93321.03;5087673;28;20052;-74
2023/07/14 08:20:21;;;;;;;10.48;5.07;;;;;;;30.48;61.39;93354.72;5087094;28;20118;-74
2023/07/14 08:22:47;;;;;;;10.27;4.90;;;;;;;31.18;60.87;93347.66;5096029;28;20136;-74
2023/07/14 08:25:14;;;;;;;8.40;5.50;;;;;;;31.56;57.95;93341.09;5086102;28;20092;-75
2023/07/14 08:27:41;;;;;;;6.70;4.60;;;;;;;31.24;56.57;93348.19;5097384;28;20128;-75
2023/07/14 08:30:09;;;;;;;7.50;4.53;;;;;;;31.42;57.15;93338.09;5103567;28;20132;-74
2023/07/14 08:32:37;;;;;;;9.20;4.88;;;;;;;31.90;56.56;93343.50;5103302;28;20047;-74
2023/07/14 08:35:04;;;;;;;9.68;5.10;;;;;;;32.04;53.81;93334.31;5096899;28;20101;-74
2023/07/14 08:37:31;;;;;;;7.25;4.50;;;;;;;31.67;55.18;93346.69;5095483;28;20079;-74
2023/07/14 08:39:57;;;;;;;8.70;4.70;;;;;;;31.22;57.15;93345.09;5095677;28;20147;-74
2023/07/14 08:42:37;;;;;;;8.52;4.78;;;;;;;31.72;56.94;93337.69;5093602;28;20112;-74
2023/07/14 08:45:20;;;;;;;10.45;4.88;;;;;;;31.95;56.35;93335.25;5094450;28;20398;-75
2023/07/14 08:47:59;;;;;;;8.85;5.18;;;;;;;32.51;54.44;93343.38;5092654;28;20051;-75
2023/07/14 08:50:29;;;;;;;7.95;5.15;;;;;;;31.89;52.76;93347.25;5092501;28;20532;-75
2023/07/14 08:53:03;;;;;;;8.73;5.05;;;;;;;31.25;55.54;93350.50;5093933;28;20083;-74
2023/07/14 08:55:33;;;;;;;8.50;4.95;;;;;;;31.01;56.65;93346.06;5090445;28;20528;-74
2023/07/14 08:58:04;;;;;;;11.27;5.72;;;;;;;31.48;56.86;93335.94;5092571;28;20087;-74
2023/07/14 09:00:37;;;;;;;7.13;4.60;;;;;;;31.88;55.79;93335.06;5092503;28;20605;-74
2023/07/14 09:03:10;;;;;;;8.20;4.90;;;;;;;31.34;53.43;93313.25;5091926;28;20998;-74
2023/07/14 09:05:42;;;;;;;9.60;5.57;;;;;;;31.37;54.80;93333.03;5092708;28;20149;-74
2023/07/14 09:08:11;;;;;;;7.55;4.43;;;;;;;32.07;53.91;93338.94;5093216;28;20698;-74
2023/07/14 09:10:51;;;;;;;9.18;5.22;;;;;;;32.47;53.45;93327.34;5092167;28;20475;-74
2023/07/14 09:13:30;;;;;;;9.13;5.00;;;;;;;32.24;54.77;93330.63;5101251;28;20135;-74
2023/07/14 09:15:57;;;;;;;8.10;5.05;;;;;;;32.92;53.85;93327.13;5092498;28;20099;-75
2023/07/14 09:18:44;;;;;;;7.15;4.97;;;;;;;33.39;50.64;93324.63;5100577;28;20136;-75
2023/07/14 09:21:20;;;;;;;9.23;5.38;;;;;;;33.66;50.23;93314.09;5109425;28;20664;-74
2023/07/14 09:24:02;;;;;;;9.90;5.68;;;;;;;33.30;47.78;93324.84;5090240;28;20093;-74
2023/07/14 09:26:32;;;;;;;10.50;5.05;;;;;;;32.36;49.93;93315.69;5099133;28;20048;-74
2023/07/14 09:29:01;;;;;;;7.50;4.85;;;;;;;32.74;52.29;93292.97;5090853;28;20414;-74
2023/07/14 09:31:40;;;;;;;10.95;5.18;;;;;;;33.33;52.97;93314.25;5098088;28;20051;-74
2023/07/14 09:34:16;;;;;;;10.70;5.15;;;;;;;33.59;52.72;93306.75;5092017;28;20639;-75
2023/07/14 09:36:43;;;;;;;10.02;5.35;;;;;;;32.90;48.97;93311.53;5092760;28;20517;-75
2023/07/14 09:39:18;;;;;;;7.75;4.38;;;;;;;32.53;50.39;93314.53;5092306;28;20137;-74
2023/07/14 09:41:46;;;;;;;7.70;4.90;;;;;;;32.55;50.76;93308.88;5098553;28;20055;-74
2023/07/14 09:44:12;;;;;;;7.22;4.88;;;;;;;32.68;48.36;93312.97;5104739;28;20051;-75
2023/07/14 09:46:46;;;;;;;11.52;5.15;;;;;;;33.05;48.83;93309.94;5085472;28;20505;-75
2023/07/14 09:49:23;;;;;;;9.20;4.72;;;;;;;33.64;46.42;93306.44;5085261;28;20088;-74
2023/07/14 09:52:20;;;;;;;10.90;5.15;;;;;;;34.12;45.74;93310.66;5090435;28;20051;-74
2023/07/14 09:54:53;;;;;;;10.90;4.78;;;;;;;34.31;44.06;93304.47;5055205;28;20711;-74
2023/07/14 09:57:22;;;;;;;9.93;5.10;;;;;;;34.48;45.51;93305.09;5092745;28;20685;-74
2023/07/14 09:59:56;;;;;;;7.10;4.85;;;;;;;34.91;43.47;93305.69;5098939;28;20100;-74
2023/07/14 10:02:27;;;;;;;9.70;5.45;;;;;;;35.14;42.86;93304.81;5090639;28;20090;-74
2023/07/14 10:05:03;;;;;;;6.88;4.43;;;;;;;35.63;42.81;93302.25;5093354;28;20554;-74
2023/07/14 10:07:40;;;;;;;8.10;4.85;;;;;;;35.93;41.34;93298.72;5092796;28;20375;-75
2023/07/14 10:10:09;;;;;;;8.98;4.72;;;;;;;35.97;41.26;93296.06;5101099;28;20043;-74
2023/07/14 10:12:40;;;;;;;8.55;4.90;;;;;;;36.05;40.80;93289.63;5087840;28;20051;-74
2023/07/14 10:15:30;;;;;;;10.02;4.93;;;;;;;34.88;43.63;93287.72;5098088;28;20116;-74
2023/07/14 10:17:58;;;;;;;7.10;4.50;;;;;;;35.22;41.87;93289.66;5087324;28;20051;-74
2023/07/14 10:20:27;;;;;;;9.20;4.80;;;;;;;34.94;42.98;93279.38;5093573;28;20122;-75
2023/07/14 10:22:56;;;;;;;8.55;5.32;;;;;;;35.26;42.79;93287.00;5083593;28;20474;-75
2023/07/14 10:25:23;;;;;;;8.63;4.25;;;;;;;34.94;42.19;93271.38;5093129;28;20160;-77
2023/07/14 10:27:58;;;;;;;7.47;4.70;;;;;;;33.82;42.05;93272.13;5087116;28;20052;-77
2023/07/14 10:30:42;;;;;;;9.98;5.10;;;;;;;34.46;42.84;93264.66;5092905;28;20079;-75
2023/07/14 10:33:17;;;;;;;8.25;4.50;;;;;;;34.56;40.49;93269.38;5087908;28;20501;-75
2023/07/14 10:35:45;;;;;;;;;;;;;;;34.54;40.91;93268.97;5090768;28;20087;-74
2023/07/14 10:38:19;;;;;;;9.18;5.72;;;;;;;34.01;45.73;93273.16;5093971;28;20357;-74
2023/07/14 10:40:51;;;;;;;11.43;5.60;;;;;;;33.60;46.05;93265.69;5089768;28;20101;-74
2023/07/14 10:43:23;;;;;;;10.60;4.97;;;;;;;34.17;46.47;93266.94;5098353;28;20100;-75
2023/07/14 10:45:56;;;;;;;14.20;5.40;;;;;;;34.69;44.62;93261.94;5089300;28;20132;-75
2023/07/14 10:48:28;;;;;;;8.68;5.47;;;;;;;35.08;43.31;93263.50;5088857;28;20117;-75
2023/07/14 10:51:01;;;;;;;9.50;4.63;;;;;;;35.73;44.10;93259.97;5090743;28;20509;-75
2023/07/14 10:53:33;;;;;;;11.60;4.95;;;;;;;36.13;40.71;93258.38;5091921;28;20087;-75
2023/07/14 10:56:06;;;;;;;9.88;5.18;;;;;;;35.28;41.73;93256.16;5090454;28;20506;-75
2023/07/14 10:58:39;;;;;;;8.60;4.45;;;;;;;35.34;39.91;93258.47;5089732;28;20083;-75
2023/07/14 11:01:12;;;;;;;10.02;4.78;;;;;;;34.46;40.99;93259.34;5090444;28;20048;-75
2023/07/14 11:03:44;;;;;;;5.90;4.47;;;;;;;34.88;43.07;93254.91;5098545;28;20482;-75
2023/07/14 11:06:17;;;;;;;12.18;5.10;;;;;;;34.87;42.49;93256.81;5093552;28;20091;-75
2023/07/14 11:08:50;;;;;;;9.02;4.60;;;;;;;35.21;43.29;93225.94;5088787;28;20044;-75
2023/07/14 11:11:26;;;;;;;7.97;4.80;;;;;;;35.97;40.77;93251.38;5094185;28;20076;-75
2023/07/14 11:14:08;;;;;;;11.38;4.70;;;;;;;36.47;38.93;93246.75;5086887;28;20083;-75
2023/07/14 11:16:43;;;;;;;16.00;5.30;;;;;;;36.73;38.88;93239.59;5092766;28;20083;-75
2023/07/14 11:19:16;;;;;;;8.25;4.57;;;;;;;37.12;36.88;93246.25;5092374;28;20136;-75
2023/07/14 11:21:49;;;;;;;9.85;4.40;;;;;;;37.09;37.04;93245.06;5099709;28;20513;-75
2023/07/14 11:24:19;;;;;;;7.72;4.47;;;;;;;37.44;37.68;93243.63;5084768;28;20084;-75
2023/07/14 11:27:05;;;;;;;8.07;4.22;;;;;;;36.22;38.62;93237.44;5092835;28;20502;-74
2023/07/14 11:29:39;;;;;;;9.55;5.18;;;;;;;35.46;40.02;93236.84;5087852;28;20047;-75
2023/07/14 11:32:17;;;;;;;9.23;4.43;;;;;;;35.40;42.22;93243.66;5098009;28;20055;-74
2023/07/14 11:34:55;;;;;;;7.22;4.57;;;;;;;35.56;41.73;93238.06;5091952;28;20094;-75
2023/07/14 11:37:37;;;;;;;7.60;4.57;;;;;;;34.55;41.86;93233.16;5087758;28;20500;-75